Latest Weather Observations for Nullarbor

IDS60801

Issued at 9:35 pm CDT Friday 31 October 2014 (issued every 30 minutes, with the page automatically refreshed every 10 minutes)

About weather observations | Map of weather stations | Latest weather observations for SA | Other Formats
Station Details ID: 018106 Name: NULLARBOR Lat: -31.45 Lon: 130.90 Height: 64.0 m
Data from the previous 72 hours. | See also: Recent months at Nullarbor
Date/Time
CDT
Temp
°C
App
Temp
°C
Dew
Point
Rel
Hum
%
Delta-T
°C
Wind Press
QNH
hPa
Press
MSL
hPa
Rain
since 9 am
mm
Dir
 
Spd
km/h
Gust
km/h
Spd
kts
Gust
kts
31/09:30pm 17.6 13.3 13.1 75 2.5 SW 28 39 15 21 1014.2 1014.1 0.0
31/09:00pm 17.5 12.8 13.2 76 2.4 SW 30 39 16 21 1013.2 1013.1 0.0
31/08:30pm 17.8 12.6 12.9 73 2.8 SSW 32 44 17 24 1012.3 1012.2 0.0
31/08:00pm 17.8 11.6 12.7 72 2.9 SSW 37 48 20 26 1012.0 1011.9 0.0
31/07:30pm 17.9 11.1 12.1 69 3.2 SSW 39 50 21 27 1011.5 1011.4 0.0
31/07:00pm 18.4 10.6 11.9 66 3.6 SSW 44 56 24 30 1010.6 1010.5 0.0
31/06:49pm 19.0 11.4 12.5 66 3.6 SSW 44 63 24 34 1010.4 1010.3 0.0
31/06:30pm 19.1 11.0 12.1 64 3.9 SSW 46 57 25 31 1009.7 1009.5 0.0
31/06:00pm 19.7 11.3 12.2 62 4.2 SSW 48 61 26 33 1009.1 1008.9 0.0
31/05:30pm 20.4 12.3 11.9 58 4.8 SSW 46 61 25 33 1008.8 1008.6 0.0
31/05:00pm 21.0 13.2 11.9 56 5.1 SSW 44 56 24 30 1008.3 1008.1 0.0
31/04:30pm 20.9 13.4 12.6 59 4.7 SSW 44 56 24 30 1007.9 1007.7 0.0
31/04:07pm 21.7 14.3 13.1 58 4.9 SSW 44 57 24 31 1007.7 1007.5 0.0
31/04:00pm 20.9 13.5 13.1 61 4.5 SSW 44 57 24 31 1007.7 1007.5 0.0
31/03:54pm 21.1 13.6 14.0 64 4.1 SSW 46 57 25 31 1007.8 1007.6 0.0
31/03:35pm 18.3 12.0 15.6 84 1.6 SW 43 56 23 30 1007.9 1007.7 0.0
31/03:30pm 19.7 13.3 15.4 76 2.6 SW 43 56 23 30 1007.9 1007.7 0.0
31/03:21pm 20.4 14.3 15.2 72 3.1 SW 41 50 22 27 1007.9 1007.7 0.0
31/03:00pm 23.0 17.1 14.8 60 4.9 SSW 39 52 21 28 1007.4 1007.2 0.0
31/02:58pm 23.7 18.2 14.7 57 5.4 SSW 37 52 20 28 1007.3 1007.1 0.0
31/02:30pm 24.0 20.6 14.7 56 5.6 S 26 35 14 19 1006.7 1006.6 0.0
31/02:00pm 23.9 20.0 14.3 55 5.7 SE 28 33 15 18 1005.2 1005.1 0.0
31/01:30pm 23.5 19.0 15.3 60 4.9 SSE 33 41 18 22 1005.7 1005.6 0.0
31/01:00pm 23.3 18.7 14.6 58 5.2 S 32 44 17 24 1006.2 1006.1 0.0
31/12:30pm 21.7 17.7 15.3 67 3.8 S 30 37 16 20 1006.5 1006.4 0.0
31/12:00pm 22.4 17.6 14.0 59 4.9 S 32 39 17 21 1006.6 1006.5 0.0
31/11:30am 23.9 18.6 14.3 55 5.7 S 35 43 19 23 1006.8 1006.7 0.0
31/11:00am 21.7 16.4 15.3 67 3.8 S 37 44 20 24 1006.7 1006.6 0.0
31/10:30am 23.8 19.2 14.5 56 5.5 SSW 32 39 17 21 1006.5 1006.4 0.0
31/10:13am 24.9 18.6 12.2 45 7.3 SW 37 43 20 23 1006.3 1006.2 0.0
31/10:00am 28.6 25.5 8.8 29 10.9 NW 15 19 8 10 1006.1 1006.0 0.0
31/09:30am 28.6 24.6 6.7 25 11.7 N 17 20 9 11 1005.1 1005.0 0.0
31/09:00am 26.5 22.7 6.0 27 10.7 NNE 15 19 8 10 1004.9 1004.8 0.2
31/08:30am 23.9 20.9 7.5 35 8.7 ENE 13 17 7 9 1004.7 1004.6 0.2
31/08:00am 20.9 18.0 9.5 48 6.1 NE 15 19 8 10 1004.9 1004.8 0.2
31/07:30am 17.7 14.6 10.3 62 4.0 NE 17 19 9 10 1005.2 1005.1 0.2
31/07:00am 16.0 13.0 10.5 70 2.9 NE 17 19 9 10 1005.2 1005.1 0.2
31/06:30am 16.1 13.1 10.8 71 2.8 NNE 17 19 9 10 1005.6 1005.5 0.2
31/06:00am 16.9 13.7 11.4 70 3.0 NNE 19 22 10 12 1005.8 1005.7 0.2
31/05:30am 16.7 14.0 11.8 73 2.7 NNE 17 19 9 10 1005.7 1005.6 0.2
31/05:00am 17.9 16.6 12.6 71 3.0 ENE 11 13 6 7 1005.6 1005.5 0.2
31/04:30am 18.2 16.4 13.3 73 2.8 NE 15 19 8 10 1006.1 1006.0 0.2
31/04:00am 19.2 17.8 13.4 69 3.3 S 13 22 7 12 1006.5 1006.4 0.2
31/03:30am 19.5 17.7 13.2 67 3.6 S 15 19 8 10 1007.4 1007.2 0.2
31/03:00am 19.9 15.5 11.7 59 4.6 SW 26 33 14 18 1008.6 1008.4 0.2
31/02:30am 20.3 18.3 10.1 52 5.5 SSW 11 17 6 9 1008.5 1008.3 0.2
31/02:00am 21.4 17.0 7.6 41 7.2 WSW 20 32 11 17 1009.5 1009.3 0.2
31/01:36am 19.8 14.1 8.2 47 6.0 WSW 28 46 15 25 1009.3 1009.1 0.2
31/01:30am 19.7 16.8 8.1 47 6.0 W 13 17 7 9 1008.8 1008.6 0.2
31/01:00am 19.9 16.3 6.6 42 6.7 E 15 17 8 9 1007.4 1007.2 0.2
31/12:30am 20.5 16.6 7.2 42 6.8 E 17 19 9 10 1007.7 1007.5 0.2
31/12:00am 21.8 18.0 7.6 40 7.4 E 17 22 9 12 1008.0 1007.8 0.2
 
Date/Time
CDT
Temp
°C
App
Temp
°C
Dew
Point
Rel
Hum
%
Delta-T
°C
Wind Press
QNH
hPa
Press
MSL
hPa
Rain
since 9 am
mm
Dir
 
Spd
km/h
Gust
km/h
Spd
kts
Gust
kts
30/11:30pm 21.6 17.7 8.8 44 6.8 ESE 19 22 10 12 1008.3 1008.1 0.2
30/11:00pm 21.0 17.9 10.2 50 5.9 E 17 20 9 11 1008.8 1008.6 0.2
30/10:30pm 20.7 19.4 11.3 55 5.2 E 9 13 5 7 1009.8 1009.6 0.2
30/10:00pm 21.3 18.6 11.6 54 5.4 ESE 17 19 9 10 1009.4 1009.2 0.2
30/09:30pm 20.3 18.9 13.5 65 3.9 ENE 13 19 7 10 1009.8 1009.6 0.2
30/09:00pm 20.4 18.8 12.9 62 4.3 SE 13 22 7 12 1010.0 1009.8 0.2
30/08:30pm 23.6 21.1 8.1 37 8.2 S 11 17 6 9 1009.2 1009.0 0.0
30/08:00pm 25.2 21.3 8.7 35 8.9 S 19 24 10 13 1008.0 1007.8 0.0
30/07:30pm 27.2 24.0 8.6 31 10.2 S 15 17 8 9 1008.1 1007.9 0.0
30/07:00pm 27.6 23.5 8.5 30 10.4 S 20 26 11 14 1008.2 1008.0 0.0
30/06:30pm 28.1 24.0 7.9 28 11.0 S 19 28 10 15 1008.6 1008.4 0.0
30/06:00pm 27.3 20.6 7.2 28 10.7 SW 32 43 17 23 1009.1 1008.9 0.0
30/05:44pm 27.1 19.8 7.0 28 10.7 WSW 35 44 19 24 1009.4 1009.2 0.0
30/05:31pm 27.8 17.4 6.0 25 11.4 WSW 50 69 27 37 1009.4 1009.2 0.0
30/05:30pm 27.9 17.0 5.5 24 11.7 WSW 52 69 28 37 1009.4 1009.2 0.0
30/05:24pm 29.4 17.1 3.4 19 13.1 WSW 57 69 31 37 1009.0 1008.8 0.0
30/05:21pm 32.7 24.3 1.7 14 15.6 W 35 56 19 30 1008.6 1008.4 0.0
30/05:20pm 33.0 25.2 2.0 14 15.7 WNW 32 46 17 25 1008.6 1008.4 0.0
30/05:00pm 33.5 28.9 -1.0 11 16.6 NNW 13 19 7 10 1008.4 1008.2 0.0
30/04:30pm 33.9 29.0 -0.7 11 16.8 NNW 15 22 8 12 1008.3 1008.1 0.0
30/04:00pm 34.7 29.7 -1.4 10 17.4 N 15 22 8 12 1008.7 1008.5 0.0
30/03:30pm 34.8 28.8 -1.3 10 17.5 N 20 30 11 16 1009.1 1008.9 0.0
30/03:00pm 34.9 29.5 -1.2 10 17.5 N 17 26 9 14 1009.6 1009.4 0.0
30/02:30pm 33.8 27.7 -2.0 10 17.0 N 20 28 11 15 1010.1 1010.0 0.0
30/02:00pm 33.5 27.0 -2.3 10 16.9 N 22 33 12 18 1010.6 1010.5 0.0
30/01:30pm 33.4 26.5 -2.3 10 16.9 N 24 41 13 22 1011.1 1011.0 0.0
30/01:00pm 32.7 25.6 -1.6 11 16.3 NNE 26 35 14 19 1011.7 1011.6 0.0
30/12:30pm 31.9 24.5 -1.0 12 15.7 NNE 28 35 15 19 1012.2 1012.1 0.0
30/12:00pm 29.9 22.3 0.5 15 14.2 NE 30 37 16 20 1012.5 1012.4 0.0
30/11:30am 27.6 20.3 2.6 20 12.3 NE 30 35 16 19 1012.7 1012.6 0.0
30/11:00am 26.8 20.0 3.3 22 11.7 NE 28 35 15 19 1013.1 1013.0 0.0
30/10:30am 24.8 18.2 4.0 26 10.3 NE 28 41 15 22 1013.4 1013.3 0.0
30/10:00am 23.4 17.3 4.9 30 9.2 NE 26 33 14 18 1013.6 1013.5 0.0
30/09:30am 21.7 15.4 5.6 35 8.1 NE 28 37 15 20 1013.7 1013.6 0.0
30/09:00am 20.4 15.5 6.7 41 6.9 NE 22 28 12 15 1013.7 1013.6 0.0
30/08:30am 18.7 13.2 7.5 48 5.7 NE 26 33 14 18 1013.7 1013.6 0.0
30/08:00am 16.8 11.6 9.0 60 4.0 NE 26 33 14 18 1013.5 1013.4 0.0
30/07:30am 14.8 10.5 9.4 70 2.8 NE 22 28 12 15 1013.6 1013.5 0.0
30/07:00am 13.7 10.3 9.2 74 2.3 NE 17 22 9 12 1013.7 1013.6 0.0
30/06:30am 14.3 10.3 8.9 70 2.7 NE 20 33 11 18 1013.5 1013.4 0.0
30/06:00am 13.0 10.4 9.3 78 1.9 NE 13 22 7 12 1013.5 1013.4 0.0
30/05:30am 11.1 8.0 7.2 77 1.9 ENE 13 17 7 9 1013.8 1013.7 0.0
30/05:00am 11.1 7.6 7.2 77 1.9 ENE 15 15 8 8 1014.1 1014.0 0.0
30/04:30am 10.7 7.9 6.8 77 1.8 ENE 11 13 6 7 1014.6 1014.5 0.0
30/04:00am 11.8 8.7 7.3 74 2.2 ENE 13 15 7 8 1014.2 1014.1 0.0
30/03:30am 12.6 9.6 7.7 72 2.4 ENE 13 17 7 9 1014.3 1014.2 0.0
30/03:00am 13.4 10.7 8.9 74 2.3 E 13 17 7 9 1014.8 1014.7 0.0
30/02:43am 13.6 11.0 9.5 76 2.1 E 13 17 7 9 1014.9 1014.8 0.0
30/02:30am 13.6 10.9 10.2 80 1.8 E 15 17 8 9 1014.9 1014.8 0.0
30/02:10am 13.7 11.6 11.0 84 1.4 ESE 13 17 7 9 1015.3 1015.2 0.0
30/02:00am 14.2 12.2 11.4 83 1.5 ESE 13 17 7 9 1015.5 1015.4 0.0
30/01:30am 15.1 13.4 12.4 84 1.5 E 13 19 7 10 1015.4 1015.3 0.0
30/01:00am 15.3 13.4 11.9 80 1.8 ESE 13 15 7 8 1015.9 1015.8 0.0
30/12:30am 16.6 14.5 12.4 76 2.3 ESE 15 19 8 10 1016.1 1016.0 0.0
30/12:00am 17.2 13.7 12.1 72 2.8 ESE 22 28 12 15 1016.0 1015.9 0.0
 
Date/Time
CDT
Temp
°C
App
Temp
°C
Dew
Point
Rel
Hum
%
Delta-T
°C
Wind Press
QNH
hPa
Press
MSL
hPa
Rain
since 9 am
mm
Dir
 
Spd
km/h
Gust
km/h
Spd
kts
Gust
kts
29/11:30pm 17.6 13.9 12.7 73 2.7 ESE 24 32 13 17 1016.2 1016.1 0.0
29/11:00pm 17.6 14.0 13.1 75 2.5 ESE 24 33 13 18 1016.4 1016.3 0.0
29/10:30pm 17.8 14.6 13.1 74 2.6 ESE 22 30 12 16 1016.4 1016.3 0.0
29/10:00pm 17.9 13.7 12.4 70 3.1 ESE 26 32 14 17 1016.4 1016.3 0.0
29/09:30pm 18.3 14.1 12.3 68 3.3 ESE 26 35 14 19 1016.4 1016.3 0.0
29/09:00pm 18.4 14.3 12.6 69 3.2 SE 26 33 14 18 1016.1 1016.0 0.0
29/08:30pm 18.6 13.7 12.4 67 3.5 SE 30 39 16 21 1015.8 1015.7 0.0
29/08:00pm 19.1 14.0 11.9 63 4.0 SE 30 39 16 21 1015.6 1015.5 0.0
29/07:30pm 19.7 14.4 11.2 58 4.7 SE 30 41 16 22 1015.4 1015.3 0.0
29/07:00pm 20.3 14.3 10.1 52 5.5 SE 32 39 17 21 1015.5 1015.4 0.0
29/06:30pm 21.3 15.1 9.5 47 6.3 SE 32 37 17 20 1015.3 1015.2 0.0
29/06:00pm 22.4 17.4 10.9 48 6.4 SE 28 33 15 18 1015.3 1015.2 0.0
29/05:30pm 22.7 18.1 12.3 52 5.9 SSE 28 35 15 19 1015.0 1014.9 0.0
29/05:00pm 23.9 19.3 10.9 44 7.3 SSE 26 33 14 18 1014.9 1014.8 0.0
29/04:30pm 25.7 20.7 11.1 40 8.2 SSE 28 33 15 18 1014.8 1014.7 0.0
29/04:00pm 26.7 20.8 7.7 30 10.2 SE 28 33 15 18 1014.8 1014.7 0.0
29/03:30pm 28.6 22.3 5.5 23 12.0 SE 28 33 15 18 1015.1 1015.0 0.0
29/03:00pm 29.0 23.6 6.4 24 12.0 SE 24 32 13 17 1015.3 1015.2 0.0
29/02:30pm 29.3 23.8 6.0 23 12.3 SE 24 35 13 19 1015.8 1015.7 0.0
29/02:00pm 29.5 24.1 6.2 23 12.4 ESE 24 33 13 18 1016.0 1015.9 0.0
29/01:30pm 28.6 24.4 5.5 23 12.0 SE 17 24 9 13 1016.5 1016.4 0.0
29/01:00pm 28.7 25.1 4.9 22 12.3 SE 13 22 7 12 1017.0 1016.9 0.0
29/12:30pm 28.1 24.9 5.0 23 11.9 ESE 11 20 6 11 1017.4 1017.3 0.0
29/12:00pm 27.4 23.2 5.6 25 11.3 ESE 17 24 9 13 1017.8 1017.7 0.0
29/11:30am 26.6 22.5 6.1 27 10.7 E 17 20 9 11 1018.0 1017.9 0.0
29/11:00am 25.1 21.2 7.3 32 9.4 ENE 17 24 9 13 1018.2 1018.1 0.0
29/10:30am 23.5 19.4 8.0 37 8.2 ENE 19 26 10 14 1018.6 1018.5 0.0
29/10:00am 21.8 19.3 9.7 46 6.5 ENE 13 19 7 10 1018.9 1018.8 0.0
29/09:30am 18.6 16.0 9.4 55 4.8 E 13 17 7 9 1019.0 1018.9 0.0
29/09:00am 17.2 13.7 10.1 63 3.8 ENE 19 24 10 13 1019.1 1019.0 0.0
29/08:30am 14.2 11.6 10.6 79 1.9 ENE 15 20 8 11 1019.2 1019.1 0.0
29/08:00am 11.8 9.8 10.0 89 0.9 E 11 15 6 8 1019.3 1019.2 0.0
29/07:30am 10.8 7.9 9.7 93 0.6 ENE 15 17 8 9 1019.2 1019.1 0.0
29/07:00am 10.6 7.7 9.8 95 0.4 E 15 19 8 10 1019.1 1019.0 0.0
29/06:30am 10.7 8.0 10.2 97 0.3 E 15 19 8 10 1018.9 1018.8 0.0
29/06:00am 9.7 6.6 8.9 95 0.4 ESE 15 17 8 9 1019.0 1018.9 0.0
29/05:30am 9.7 7.0 8.9 95 0.4 E 13 15 7 8 1018.8 1018.7 0.0
29/05:00am 9.4 6.2 8.3 93 0.5 E 15 17 8 9 1018.7 1018.6 0.0
29/04:30am 10.1 7.4 8.9 92 0.6 E 13 15 7 8 1018.7 1018.6 0.0
29/04:00am 10.5 7.5 9.1 91 0.7 E 15 17 8 9 1018.7 1018.6 0.0
29/03:30am 11.0 8.0 9.4 90 0.8 E 15 17 8 9 1019.0 1018.9 0.0
29/03:00am 11.0 8.4 9.4 90 0.8 E 13 17 7 9 1018.8 1018.7 0.0
29/02:30am 11.3 8.4 9.7 90 0.8 E 15 17 8 9 1018.9 1018.8 0.0
29/02:00am 11.2 8.3 9.6 90 0.8 E 15 17 8 9 1019.3 1019.2 0.0
29/01:30am 11.5 9.0 9.6 88 1.0 E 13 15 7 8 1019.8 1019.7 0.0
29/01:00am 11.9 9.1 10.0 88 1.0 SE 15 17 8 9 1020.2 1020.1 0.0
29/12:30am 12.1 9.6 9.8 86 1.2 SE 13 15 7 8 1020.3 1020.2 0.0
29/12:00am 12.4 9.5 9.8 84 1.3 SE 15 19 8 10 1020.4 1020.3 0.0
 
Date/Time
CDT
Temp
°C
App
Temp
°C
Dew
Point
Rel
Hum
%
Delta-T
°C
Wind Press
QNH
hPa
Press
MSL
hPa
Rain
since 9 am
mm
Dir
 
Spd
km/h
Gust
km/h
Spd
kts
Gust
kts
28/11:30pm 12.9 10.1 9.9 82 1.5 SE 15 17 8 9 1020.6 1020.5 0.0
28/11:00pm 13.5 10.7 10.1 80 1.8 SE 15 17 8 9 1020.8 1020.7 0.0
28/10:30pm 14.0 11.3 10.2 78 2.0 SE 15 19 8 10 1020.7 1020.6 0.0
28/10:00pm 14.4 11.3 10.2 76 2.2 SSE 17 19 9 10 1020.7 1020.6 0.0

Other Formats:

Comma delimited format used in spreadsheet applications
http://www.bom.gov.au/fwo/IDS60801/IDS60801.94651.axf

JavaScript Object Notation format (JSON) in row-major order
http://www.bom.gov.au/fwo/IDS60801/IDS60801.94651.json